sensor_id;sensor_type;location;lat;lon;timestamp;P1;durP1;ratioP1;P2;durP2;ratioP2
36653;SDS011;22650;49.350;20.898;2024-03-07T00:01:24;3.78;;;2.38;;
36653;SDS011;22650;49.350;20.898;2024-03-07T00:03:58;4.78;;;3.30;;
36653;SDS011;22650;49.350;20.898;2024-03-07T00:06:33;3.60;;;2.55;;
36653;SDS011;22650;49.350;20.898;2024-03-07T00:09:07;4.75;;;2.72;;
36653;SDS011;22650;49.350;20.898;2024-03-07T00:11:41;3.40;;;2.60;;
36653;SDS011;22650;49.350;20.898;2024-03-07T00:14:15;3.42;;;2.30;;
36653;SDS011;22650;49.350;20.898;2024-03-07T00:16:49;4.13;;;2.70;;
36653;SDS011;22650;49.350;20.898;2024-03-07T00:19:22;3.45;;;2.30;;
36653;SDS011;22650;49.350;20.898;2024-03-07T00:21:59;2.72;;;2.20;;
36653;SDS011;22650;49.350;20.898;2024-03-07T00:24:33;4.68;;;2.17;;
36653;SDS011;22650;49.350;20.898;2024-03-07T00:27:07;3.22;;;1.90;;
36653;SDS011;22650;49.350;20.898;2024-03-07T00:29:40;3.55;;;2.10;;
36653;SDS011;22650;49.350;20.898;2024-03-07T00:32:14;4.65;;;2.15;;
36653;SDS011;22650;49.350;20.898;2024-03-07T00:34:50;3.30;;;2.00;;
36653;SDS011;22650;49.350;20.898;2024-03-07T00:37:25;3.08;;;2.20;;
36653;SDS011;22650;49.350;20.898;2024-03-07T00:39:58;3.00;;;2.17;;
36653;SDS011;22650;49.350;20.898;2024-03-07T00:42:32;3.40;;;2.38;;
36653;SDS011;22650;49.350;20.898;2024-03-07T00:45:06;2.28;;;1.73;;
36653;SDS011;22650;49.350;20.898;2024-03-07T00:47:41;3.30;;;2.33;;
36653;SDS011;22650;49.350;20.898;2024-03-07T00:50:14;3.72;;;2.70;;
36653;SDS011;22650;49.350;20.898;2024-03-07T00:52:50;3.65;;;2.45;;
36653;SDS011;22650;49.350;20.898;2024-03-07T00:55:23;3.30;;;2.20;;
36653;SDS011;22650;49.350;20.898;2024-03-07T00:57:57;3.15;;;2.42;;
36653;SDS011;22650;49.350;20.898;2024-03-07T01:00:31;3.13;;;2.20;;
36653;SDS011;22650;49.350;20.898;2024-03-07T01:03:04;3.42;;;2.50;;
36653;SDS011;22650;49.350;20.898;2024-03-07T01:05:38;3.25;;;2.40;;
36653;SDS011;22650;49.350;20.898;2024-03-07T01:08:13;3.40;;;2.25;;
36653;SDS011;22650;49.350;20.898;2024-03-07T01:13:20;3.17;;;2.25;;
36653;SDS011;22650;49.350;20.898;2024-03-07T01:15:55;3.25;;;2.15;;
36653;SDS011;22650;49.350;20.898;2024-03-07T01:18:29;2.92;;;2.33;;
36653;SDS011;22650;49.350;20.898;2024-03-07T01:21:03;2.35;;;2.00;;
36653;SDS011;22650;49.350;20.898;2024-03-07T01:23:39;3.47;;;2.60;;
36653;SDS011;22650;49.350;20.898;2024-03-07T01:26:13;2.53;;;2.00;;
36653;SDS011;22650;49.350;20.898;2024-03-07T01:28:46;2.50;;;1.90;;
36653;SDS011;22650;49.350;20.898;2024-03-07T01:31:20;3.00;;;2.05;;
36653;SDS011;22650;49.350;20.898;2024-03-07T01:33:54;2.90;;;2.00;;
36653;SDS011;22650;49.350;20.898;2024-03-07T01:36:27;2.47;;;1.80;;
36653;SDS011;22650;49.350;20.898;2024-03-07T01:39:03;3.33;;;2.45;;
36653;SDS011;22650;49.350;20.898;2024-03-07T01:41:37;2.33;;;1.90;;
36653;SDS011;22650;49.350;20.898;2024-03-07T01:46:45;2.90;;;2.10;;
36653;SDS011;22650;49.350;20.898;2024-03-07T01:49:22;2.75;;;2.17;;
36653;SDS011;22650;49.350;20.898;2024-03-07T01:51:56;3.33;;;2.13;;
36653;SDS011;22650;49.350;20.898;2024-03-07T01:54:31;2.47;;;1.75;;
36653;SDS011;22650;49.350;20.898;2024-03-07T01:57:06;3.15;;;2.30;;
36653;SDS011;22650;49.350;20.898;2024-03-07T01:59:40;3.28;;;1.83;;
36653;SDS011;22650;49.350;20.898;2024-03-07T02:02:14;2.80;;;1.95;;
36653;SDS011;22650;49.350;20.898;2024-03-07T02:04:49;3.30;;;1.85;;
36653;SDS011;22650;49.350;20.898;2024-03-07T02:07:22;3.30;;;2.40;;
36653;SDS011;22650;49.350;20.898;2024-03-07T02:10:01;2.80;;;2.42;;
36653;SDS011;22650;49.350;20.898;2024-03-07T02:12:36;3.40;;;2.20;;
36653;SDS011;22650;49.350;20.898;2024-03-07T02:15:10;4.07;;;3.28;;
36653;SDS011;22650;49.350;20.898;2024-03-07T02:17:45;2.85;;;2.20;;
36653;SDS011;22650;49.350;20.898;2024-03-07T02:20:19;3.88;;;2.53;;
36653;SDS011;22650;49.350;20.898;2024-03-07T02:22:55;2.80;;;2.30;;
36653;SDS011;22650;49.350;20.898;2024-03-07T02:25:29;3.15;;;2.28;;
36653;SDS011;22650;49.350;20.898;2024-03-07T02:28:04;3.58;;;2.42;;
36653;SDS011;22650;49.350;20.898;2024-03-07T02:30:37;3.10;;;2.15;;
36653;SDS011;22650;49.350;20.898;2024-03-07T02:33:11;2.10;;;1.80;;
36653;SDS011;22650;49.350;20.898;2024-03-07T02:35:45;3.35;;;2.13;;
36653;SDS011;22650;49.350;20.898;2024-03-07T02:38:20;3.75;;;2.45;;
36653;SDS011;22650;49.350;20.898;2024-03-07T02:40:53;3.20;;;1.92;;
36653;SDS011;22650;49.350;20.898;2024-03-07T02:43:28;3.78;;;2.45;;
36653;SDS011;22650;49.350;20.898;2024-03-07T02:46:01;4.03;;;2.40;;
36653;SDS011;22650;49.350;20.898;2024-03-07T02:48:35;4.70;;;2.78;;
36653;SDS011;22650;49.350;20.898;2024-03-07T02:51:09;3.88;;;2.63;;
36653;SDS011;22650;49.350;20.898;2024-03-07T02:53:44;4.63;;;2.45;;
36653;SDS011;22650;49.350;20.898;2024-03-07T02:56:18;5.10;;;3.17;;
36653;SDS011;22650;49.350;20.898;2024-03-07T02:58:52;4.82;;;3.58;;
36653;SDS011;22650;49.350;20.898;2024-03-07T03:01:25;5.97;;;3.38;;
36653;SDS011;22650;49.350;20.898;2024-03-07T03:03:59;6.13;;;3.88;;
36653;SDS011;22650;49.350;20.898;2024-03-07T03:06:32;4.50;;;3.25;;
36653;SDS011;22650;49.350;20.898;2024-03-07T03:09:08;4.80;;;2.95;;
36653;SDS011;22650;49.350;20.898;2024-03-07T03:11:44;6.57;;;3.75;;
36653;SDS011;22650;49.350;20.898;2024-03-07T03:14:18;4.95;;;3.42;;
36653;SDS011;22650;49.350;20.898;2024-03-07T03:16:53;4.97;;;3.17;;
36653;SDS011;22650;49.350;20.898;2024-03-07T03:19:28;5.45;;;3.53;;
36653;SDS011;22650;49.350;20.898;2024-03-07T03:22:01;5.80;;;3.92;;
36653;SDS011;22650;49.350;20.898;2024-03-07T03:24:36;6.53;;;3.65;;
36653;SDS011;22650;49.350;20.898;2024-03-07T03:27:12;4.38;;;3.08;;
36653;SDS011;22650;49.350;20.898;2024-03-07T03:29:46;6.07;;;3.35;;
36653;SDS011;22650;49.350;20.898;2024-03-07T03:32:22;4.32;;;2.85;;
36653;SDS011;22650;49.350;20.898;2024-03-07T03:34:56;5.50;;;3.30;;
36653;SDS011;22650;49.350;20.898;2024-03-07T03:37:30;5.70;;;3.38;;
36653;SDS011;22650;49.350;20.898;2024-03-07T03:40:05;5.70;;;3.60;;
36653;SDS011;22650;49.350;20.898;2024-03-07T03:42:42;4.85;;;2.97;;
36653;SDS011;22650;49.350;20.898;2024-03-07T03:45:15;6.35;;;3.90;;
36653;SDS011;22650;49.350;20.898;2024-03-07T03:47:49;5.32;;;3.30;;
36653;SDS011;22650;49.350;20.898;2024-03-07T03:50:23;5.40;;;2.75;;
36653;SDS011;22650;49.350;20.898;2024-03-07T03:52:57;4.10;;;2.50;;
36653;SDS011;22650;49.350;20.898;2024-03-07T03:55:34;4.53;;;2.90;;
36653;SDS011;22650;49.350;20.898;2024-03-07T03:58:08;5.00;;;3.22;;
36653;SDS011;22650;49.350;20.898;2024-03-07T04:00:42;3.50;;;2.53;;
36653;SDS011;22650;49.350;20.898;2024-03-07T04:03:15;4.65;;;2.95;;
36653;SDS011;22650;49.350;20.898;2024-03-07T04:05:49;3.63;;;2.58;;
36653;SDS011;22650;49.350;20.898;2024-03-07T04:08:22;3.53;;;2.63;;
36653;SDS011;22650;49.350;20.898;2024-03-07T04:10:57;3.20;;;2.65;;
36653;SDS011;22650;49.350;20.898;2024-03-07T04:13:31;3.42;;;2.67;;
36653;SDS011;22650;49.350;20.898;2024-03-07T04:16:06;4.47;;;2.78;;
36653;SDS011;22650;49.350;20.898;2024-03-07T04:18:40;4.30;;;2.60;;
36653;SDS011;22650;49.350;20.898;2024-03-07T04:21:14;5.18;;;3.10;;
36653;SDS011;22650;49.350;20.898;2024-03-07T04:23:47;3.97;;;2.80;;
36653;SDS011;22650;49.350;20.898;2024-03-07T04:26:22;5.35;;;3.38;;
36653;SDS011;22650;49.350;20.898;2024-03-07T04:28:57;4.85;;;3.20;;
36653;SDS011;22650;49.350;20.898;2024-03-07T04:31:30;4.85;;;3.30;;
36653;SDS011;22650;49.350;20.898;2024-03-07T04:34:04;5.40;;;3.40;;
36653;SDS011;22650;49.350;20.898;2024-03-07T04:36:38;6.40;;;3.60;;
36653;SDS011;22650;49.350;20.898;2024-03-07T04:39:11;5.35;;;3.25;;
36653;SDS011;22650;49.350;20.898;2024-03-07T04:41:57;6.15;;;3.65;;
36653;SDS011;22650;49.350;20.898;2024-03-07T04:44:32;6.20;;;3.95;;
36653;SDS011;22650;49.350;20.898;2024-03-07T04:47:07;6.05;;;3.78;;
36653;SDS011;22650;49.350;20.898;2024-03-07T04:49:40;6.57;;;3.75;;
36653;SDS011;22650;49.350;20.898;2024-03-07T04:52:15;6.78;;;4.40;;
36653;SDS011;22650;49.350;20.898;2024-03-07T04:54:49;7.03;;;3.88;;
36653;SDS011;22650;49.350;20.898;2024-03-07T04:57:24;7.45;;;4.35;;
36653;SDS011;22650;49.350;20.898;2024-03-07T04:59:58;9.93;;;5.25;;
36653;SDS011;22650;49.350;20.898;2024-03-07T05:02:32;9.43;;;5.43;;
36653;SDS011;22650;49.350;20.898;2024-03-07T05:05:06;10.88;;;6.32;;
36653;SDS011;22650;49.350;20.898;2024-03-07T05:07:40;11.80;;;6.35;;
36653;SDS011;22650;49.350;20.898;2024-03-07T05:10:14;14.68;;;7.30;;
36653;SDS011;22650;49.350;20.898;2024-03-07T05:12:49;12.60;;;6.43;;
36653;SDS011;22650;49.350;20.898;2024-03-07T05:15:23;16.00;;;7.63;;
36653;SDS011;22650;49.350;20.898;2024-03-07T05:17:57;16.33;;;6.93;;
36653;SDS011;22650;49.350;20.898;2024-03-07T05:20:31;18.55;;;8.68;;
36653;SDS011;22650;49.350;20.898;2024-03-07T05:23:05;18.17;;;8.77;;
36653;SDS011;22650;49.350;20.898;2024-03-07T05:25:39;16.27;;;8.80;;
36653;SDS011;22650;49.350;20.898;2024-03-07T05:28:15;19.40;;;9.23;;
36653;SDS011;22650;49.350;20.898;2024-03-07T05:30:48;18.05;;;8.88;;
36653;SDS011;22650;49.350;20.898;2024-03-07T05:33:22;18.35;;;8.32;;
36653;SDS011;22650;49.350;20.898;2024-03-07T05:35:57;16.63;;;9.18;;
36653;SDS011;22650;49.350;20.898;2024-03-07T05:41:18;14.00;;;7.22;;
36653;SDS011;22650;49.350;20.898;2024-03-07T05:43:53;20.38;;;10.40;;
36653;SDS011;22650;49.350;20.898;2024-03-07T05:46:27;19.80;;;9.80;;
36653;SDS011;22650;49.350;20.898;2024-03-07T05:49:01;21.95;;;10.85;;
36653;SDS011;22650;49.350;20.898;2024-03-07T05:51:36;21.80;;;10.07;;
36653;SDS011;22650;49.350;20.898;2024-03-07T05:54:10;16.75;;;7.47;;
36653;SDS011;22650;49.350;20.898;2024-03-07T05:56:45;23.58;;;10.40;;
36653;SDS011;22650;49.350;20.898;2024-03-07T05:59:20;24.17;;;10.50;;
36653;SDS011;22650;49.350;20.898;2024-03-07T06:01:54;23.30;;;11.02;;
36653;SDS011;22650;49.350;20.898;2024-03-07T06:04:27;26.08;;;11.43;;
36653;SDS011;22650;49.350;20.898;2024-03-07T06:07:01;21.52;;;10.65;;
36653;SDS011;22650;49.350;20.898;2024-03-07T06:09:35;22.95;;;10.15;;
36653;SDS011;22650;49.350;20.898;2024-03-07T06:12:09;23.25;;;10.82;;
36653;SDS011;22650;49.350;20.898;2024-03-07T06:14:55;17.90;;;8.25;;
36653;SDS011;22650;49.350;20.898;2024-03-07T06:17:29;25.20;;;10.93;;
36653;SDS011;22650;49.350;20.898;2024-03-07T06:20:06;27.27;;;11.55;;
36653;SDS011;22650;49.350;20.898;2024-03-07T06:22:54;22.60;;;11.00;;
36653;SDS011;22650;49.350;20.898;2024-03-07T06:25:29;25.85;;;10.95;;
36653;SDS011;22650;49.350;20.898;2024-03-07T06:28:11;20.83;;;9.85;;
36653;SDS011;22650;49.350;20.898;2024-03-07T06:30:47;23.35;;;11.13;;
36653;SDS011;22650;49.350;20.898;2024-03-07T06:33:21;25.42;;;11.77;;
36653;SDS011;22650;49.350;20.898;2024-03-07T06:35:58;25.00;;;10.93;;
36653;SDS011;22650;49.350;20.898;2024-03-07T06:38:32;22.70;;;10.75;;
36653;SDS011;22650;49.350;20.898;2024-03-07T06:41:06;23.17;;;10.57;;
36653;SDS011;22650;49.350;20.898;2024-03-07T06:43:42;24.80;;;11.05;;
36653;SDS011;22650;49.350;20.898;2024-03-07T06:46:18;22.65;;;10.82;;
36653;SDS011;22650;49.350;20.898;2024-03-07T06:48:52;24.88;;;12.27;;
36653;SDS011;22650;49.350;20.898;2024-03-07T06:51:27;28.98;;;11.50;;
36653;SDS011;22650;49.350;20.898;2024-03-07T06:54:01;25.10;;;11.52;;
36653;SDS011;22650;49.350;20.898;2024-03-07T06:56:37;21.33;;;10.50;;
36653;SDS011;22650;49.350;20.898;2024-03-07T06:59:14;24.70;;;11.55;;
36653;SDS011;22650;49.350;20.898;2024-03-07T07:01:49;23.75;;;11.60;;
36653;SDS011;22650;49.350;20.898;2024-03-07T07:04:23;24.00;;;11.75;;
36653;SDS011;22650;49.350;20.898;2024-03-07T07:06:57;31.25;;;12.73;;
36653;SDS011;22650;49.350;20.898;2024-03-07T07:09:30;26.52;;;12.25;;
36653;SDS011;22650;49.350;20.898;2024-03-07T07:12:04;30.60;;;13.50;;
36653;SDS011;22650;49.350;20.898;2024-03-07T07:14:39;26.48;;;12.85;;
36653;SDS011;22650;49.350;20.898;2024-03-07T07:17:14;24.92;;;11.02;;
36653;SDS011;22650;49.350;20.898;2024-03-07T07:19:48;23.25;;;10.48;;
36653;SDS011;22650;49.350;20.898;2024-03-07T07:22:21;25.52;;;12.32;;
36653;SDS011;22650;49.350;20.898;2024-03-07T07:24:55;28.10;;;13.32;;
36653;SDS011;22650;49.350;20.898;2024-03-07T07:27:29;37.15;;;15.43;;
36653;SDS011;22650;49.350;20.898;2024-03-07T07:30:02;31.55;;;14.23;;
36653;SDS011;22650;49.350;20.898;2024-03-07T07:32:38;27.40;;;12.48;;
36653;SDS011;22650;49.350;20.898;2024-03-07T07:35:13;31.98;;;12.90;;
36653;SDS011;22650;49.350;20.898;2024-03-07T07:37:47;28.67;;;13.32;;
36653;SDS011;22650;49.350;20.898;2024-03-07T07:40:23;32.20;;;14.25;;
36653;SDS011;22650;49.350;20.898;2024-03-07T07:42:59;30.83;;;13.70;;
36653;SDS011;22650;49.350;20.898;2024-03-07T07:45:36;32.83;;;14.88;;
36653;SDS011;22650;49.350;20.898;2024-03-07T07:48:12;28.80;;;12.55;;
36653;SDS011;22650;49.350;20.898;2024-03-07T07:50:48;29.98;;;12.55;;
36653;SDS011;22650;49.350;20.898;2024-03-07T07:53:23;30.63;;;12.88;;
36653;SDS011;22650;49.350;20.898;2024-03-07T07:55:57;29.42;;;12.80;;
36653;SDS011;22650;49.350;20.898;2024-03-07T07:58:30;35.40;;;14.85;;
36653;SDS011;22650;49.350;20.898;2024-03-07T08:01:04;34.40;;;13.93;;
36653;SDS011;22650;49.350;20.898;2024-03-07T08:03:41;34.03;;;14.10;;
36653;SDS011;22650;49.350;20.898;2024-03-07T08:06:17;33.85;;;16.00;;
36653;SDS011;22650;49.350;20.898;2024-03-07T08:08:50;30.27;;;13.90;;
36653;SDS011;22650;49.350;20.898;2024-03-07T08:11:24;32.58;;;15.02;;
36653;SDS011;22650;49.350;20.898;2024-03-07T08:13:58;38.63;;;15.05;;
36653;SDS011;22650;49.350;20.898;2024-03-07T10:32:12;44.58;;;21.23;;
36653;SDS011;22650;49.350;20.898;2024-03-07T10:34:46;47.60;;;20.67;;
36653;SDS011;22650;49.350;20.898;2024-03-07T10:37:20;40.05;;;19.27;;
36653;SDS011;22650;49.350;20.898;2024-03-07T10:39:53;56.55;;;25.17;;
36653;SDS011;22650;49.350;20.898;2024-03-07T10:42:28;47.92;;;21.63;;
36653;SDS011;22650;49.350;20.898;2024-03-07T10:45:04;41.17;;;19.23;;
36653;SDS011;22650;49.350;20.898;2024-03-07T10:47:44;42.38;;;20.30;;
36653;SDS011;22650;49.350;20.898;2024-03-07T10:50:30;42.53;;;18.73;;
36653;SDS011;22650;49.350;20.898;2024-03-07T10:53:15;36.90;;;17.45;;
36653;SDS011;22650;49.350;20.898;2024-03-07T10:56:03;32.33;;;15.52;;
36653;SDS011;22650;49.350;20.898;2024-03-07T10:58:52;41.47;;;18.35;;
36653;SDS011;22650;49.350;20.898;2024-03-07T11:01:32;38.97;;;17.67;;
36653;SDS011;22650;49.350;20.898;2024-03-07T11:04:09;35.50;;;16.80;;
36653;SDS011;22650;49.350;20.898;2024-03-07T11:06:46;39.95;;;19.17;;
36653;SDS011;22650;49.350;20.898;2024-03-07T11:09:21;39.55;;;19.30;;
36653;SDS011;22650;49.350;20.898;2024-03-07T11:11:56;38.55;;;17.73;;
36653;SDS011;22650;49.350;20.898;2024-03-07T11:14:31;38.92;;;17.95;;
36653;SDS011;22650;49.350;20.898;2024-03-07T11:17:12;34.53;;;17.58;;
36653;SDS011;22650;49.350;20.898;2024-03-07T11:19:55;38.70;;;16.92;;
36653;SDS011;22650;49.350;20.898;2024-03-07T11:22:53;38.88;;;18.48;;
36653;SDS011;22650;49.350;20.898;2024-03-07T11:25:27;37.83;;;19.23;;
36653;SDS011;22650;49.350;20.898;2024-03-07T11:28:01;35.55;;;18.60;;
36653;SDS011;22650;49.350;20.898;2024-03-07T11:30:35;36.20;;;16.80;;
36653;SDS011;22650;49.350;20.898;2024-03-07T11:33:10;29.95;;;15.52;;
36653;SDS011;22650;49.350;20.898;2024-03-07T11:35:49;36.13;;;17.88;;
36653;SDS011;22650;49.350;20.898;2024-03-07T11:38:30;32.60;;;17.15;;
36653;SDS011;22650;49.350;20.898;2024-03-07T11:41:06;35.05;;;17.08;;
36653;SDS011;22650;49.350;20.898;2024-03-07T11:43:40;34.58;;;17.10;;
36653;SDS011;22650;49.350;20.898;2024-03-07T11:46:15;34.22;;;16.55;;
36653;SDS011;22650;49.350;20.898;2024-03-07T11:48:49;31.52;;;16.88;;
36653;SDS011;22650;49.350;20.898;2024-03-07T11:51:27;28.63;;;15.95;;
36653;SDS011;22650;49.350;20.898;2024-03-07T11:54:01;34.80;;;16.60;;
36653;SDS011;22650;49.350;20.898;2024-03-07T11:56:35;30.35;;;15.63;;
36653;SDS011;22650;49.350;20.898;2024-03-07T11:59:08;33.38;;;16.42;;
36653;SDS011;22650;49.350;20.898;2024-03-07T12:01:44;34.17;;;15.70;;
36653;SDS011;22650;49.350;20.898;2024-03-07T12:04:19;31.42;;;16.30;;
36653;SDS011;22650;49.350;20.898;2024-03-07T12:06:56;30.85;;;16.63;;
36653;SDS011;22650;49.350;20.898;2024-03-07T12:09:32;37.03;;;18.73;;
36653;SDS011;22650;49.350;20.898;2024-03-07T12:12:07;29.45;;;16.05;;
36653;SDS011;22650;49.350;20.898;2024-03-07T12:14:41;33.00;;;17.20;;
36653;SDS011;22650;49.350;20.898;2024-03-07T12:17:15;35.28;;;18.00;;
36653;SDS011;22650;49.350;20.898;2024-03-07T12:19:49;34.53;;;17.30;;
36653;SDS011;22650;49.350;20.898;2024-03-07T12:22:25;36.78;;;18.35;;
36653;SDS011;22650;49.350;20.898;2024-03-07T12:25:02;31.23;;;16.30;;
36653;SDS011;22650;49.350;20.898;2024-03-07T12:27:40;32.35;;;17.30;;
36653;SDS011;22650;49.350;20.898;2024-03-07T12:30:15;32.25;;;17.40;;
36653;SDS011;22650;49.350;20.898;2024-03-07T12:32:51;34.72;;;17.88;;
36653;SDS011;22650;49.350;20.898;2024-03-07T12:35:26;36.55;;;17.50;;
36653;SDS011;22650;49.350;20.898;2024-03-07T12:38:01;33.13;;;17.08;;
36653;SDS011;22650;49.350;20.898;2024-03-07T12:40:35;33.05;;;17.67;;
36653;SDS011;22650;49.350;20.898;2024-03-07T12:43:13;33.50;;;17.27;;
36653;SDS011;22650;49.350;20.898;2024-03-07T12:45:53;34.83;;;17.27;;
36653;SDS011;22650;49.350;20.898;2024-03-07T12:48:26;33.08;;;17.10;;
36653;SDS011;22650;49.350;20.898;2024-03-07T12:51:00;33.47;;;16.42;;
36653;SDS011;22650;49.350;20.898;2024-03-07T12:53:36;34.45;;;18.95;;
36653;SDS011;22650;49.350;20.898;2024-03-07T12:56:10;34.53;;;18.55;;
36653;SDS011;22650;49.350;20.898;2024-03-07T12:58:48;31.70;;;17.42;;
36653;SDS011;22650;49.350;20.898;2024-03-07T13:01:23;34.28;;;18.35;;
36653;SDS011;22650;49.350;20.898;2024-03-07T13:03:56;35.47;;;18.08;;
36653;SDS011;22650;49.350;20.898;2024-03-07T13:06:31;33.22;;;16.92;;
36653;SDS011;22650;49.350;20.898;2024-03-07T13:09:06;33.10;;;17.27;;
36653;SDS011;22650;49.350;20.898;2024-03-07T13:11:42;32.13;;;17.60;;
36653;SDS011;22650;49.350;20.898;2024-03-07T13:14:19;32.70;;;17.08;;
36653;SDS011;22650;49.350;20.898;2024-03-07T13:16:54;31.20;;;18.27;;
36653;SDS011;22650;49.350;20.898;2024-03-07T13:19:27;32.50;;;17.63;;
36653;SDS011;22650;49.350;20.898;2024-03-07T13:22:01;31.55;;;16.23;;
36653;SDS011;22650;49.350;20.898;2024-03-07T13:24:39;31.92;;;17.42;;
36653;SDS011;22650;49.350;20.898;2024-03-07T13:27:14;34.67;;;16.70;;
36653;SDS011;22650;49.350;20.898;2024-03-07T13:29:51;32.28;;;15.77;;
36653;SDS011;22650;49.350;20.898;2024-03-07T13:32:24;33.63;;;17.63;;
36653;SDS011;22650;49.350;20.898;2024-03-07T13:35:00;32.38;;;17.40;;
36653;SDS011;22650;49.350;20.898;2024-03-07T13:37:34;32.60;;;17.95;;
36653;SDS011;22650;49.350;20.898;2024-03-07T13:40:10;37.03;;;18.58;;
36653;SDS011;22650;49.350;20.898;2024-03-07T13:42:55;33.10;;;17.15;;
36653;SDS011;22650;49.350;20.898;2024-03-07T13:45:30;33.22;;;17.55;;
36653;SDS011;22650;49.350;20.898;2024-03-07T13:48:10;30.17;;;16.55;;
36653;SDS011;22650;49.350;20.898;2024-03-07T13:50:45;32.08;;;17.10;;
36653;SDS011;22650;49.350;20.898;2024-03-07T13:53:30;31.13;;;17.08;;
36653;SDS011;22650;49.350;20.898;2024-03-07T13:59:07;33.95;;;17.02;;
36653;SDS011;22650;49.350;20.898;2024-03-07T14:02:08;37.67;;;18.77;;
36653;SDS011;22650;49.350;20.898;2024-03-07T14:05:10;41.03;;;20.42;;
36653;SDS011;22650;49.350;20.898;2024-03-07T14:08:20;38.42;;;20.25;;
36653;SDS011;22650;49.350;20.898;2024-03-07T14:11:24;40.38;;;19.35;;
36653;SDS011;22650;49.350;20.898;2024-03-07T14:14:22;32.70;;;16.60;;
36653;SDS011;22650;49.350;20.898;2024-03-07T14:17:43;33.75;;;16.33;;
36653;SDS011;22650;49.350;20.898;2024-03-07T14:23:37;40.22;;;20.73;;
36653;SDS011;22650;49.350;20.898;2024-03-07T14:29:36;39.53;;;17.85;;
36653;SDS011;22650;49.350;20.898;2024-03-07T14:32:15;38.33;;;19.33;;
36653;SDS011;22650;49.350;20.898;2024-03-07T14:34:57;36.78;;;17.98;;
36653;SDS011;22650;49.350;20.898;2024-03-07T14:37:36;36.17;;;20.02;;
36653;SDS011;22650;49.350;20.898;2024-03-07T14:40:16;39.17;;;18.80;;
36653;SDS011;22650;49.350;20.898;2024-03-07T14:42:54;34.45;;;17.17;;
36653;SDS011;22650;49.350;20.898;2024-03-07T14:48:09;32.05;;;16.58;;
36653;SDS011;22650;49.350;20.898;2024-03-07T14:50:47;36.28;;;18.35;;
36653;SDS011;22650;49.350;20.898;2024-03-07T14:53:21;33.05;;;16.38;;
36653;SDS011;22650;49.350;20.898;2024-03-07T14:55:55;30.67;;;16.88;;
36653;SDS011;22650;49.350;20.898;2024-03-07T14:58:40;39.22;;;18.55;;
36653;SDS011;22650;49.350;20.898;2024-03-07T15:01:14;33.65;;;16.02;;
36653;SDS011;22650;49.350;20.898;2024-03-07T15:03:49;35.97;;;16.95;;
36653;SDS011;22650;49.350;20.898;2024-03-07T15:06:23;29.60;;;16.05;;
36653;SDS011;22650;49.350;20.898;2024-03-07T15:09:03;32.38;;;16.17;;
36653;SDS011;22650;49.350;20.898;2024-03-07T15:11:42;34.83;;;16.60;;
36653;SDS011;22650;49.350;20.898;2024-03-07T15:14:20;32.90;;;17.85;;
36653;SDS011;22650;49.350;20.898;2024-03-07T15:17:09;31.08;;;16.10;;
36653;SDS011;22650;49.350;20.898;2024-03-07T15:19:43;28.42;;;15.02;;
36653;SDS011;22650;49.350;20.898;2024-03-07T15:22:17;32.35;;;16.15;;
36653;SDS011;22650;49.350;20.898;2024-03-07T15:24:52;30.92;;;15.82;;
36653;SDS011;22650;49.350;20.898;2024-03-07T15:27:26;29.02;;;15.35;;
36653;SDS011;22650;49.350;20.898;2024-03-07T15:30:02;33.45;;;16.65;;
36653;SDS011;22650;49.350;20.898;2024-03-07T15:32:43;33.60;;;17.48;;
36653;SDS011;22650;49.350;20.898;2024-03-07T15:35:17;30.80;;;16.45;;
36653;SDS011;22650;49.350;20.898;2024-03-07T15:37:56;33.28;;;17.02;;
36653;SDS011;22650;49.350;20.898;2024-03-07T15:40:40;28.70;;;15.73;;
36653;SDS011;22650;49.350;20.898;2024-03-07T15:43:17;28.13;;;16.10;;
36653;SDS011;22650;49.350;20.898;2024-03-07T15:45:54;32.38;;;16.70;;
36653;SDS011;22650;49.350;20.898;2024-03-07T15:48:29;36.38;;;16.90;;
36653;SDS011;22650;49.350;20.898;2024-03-07T15:51:04;28.92;;;15.32;;
36653;SDS011;22650;49.350;20.898;2024-03-07T15:53:43;30.27;;;15.50;;
36653;SDS011;22650;49.350;20.898;2024-03-07T15:56:18;28.77;;;15.00;;
36653;SDS011;22650;49.350;20.898;2024-03-07T15:58:52;31.02;;;14.85;;
36653;SDS011;22650;49.350;20.898;2024-03-07T16:01:28;27.58;;;14.50;;
36653;SDS011;22650;49.350;20.898;2024-03-07T16:04:02;28.38;;;14.75;;
36653;SDS011;22650;49.350;20.898;2024-03-07T16:06:42;27.48;;;14.25;;
36653;SDS011;22650;49.350;20.898;2024-03-07T16:09:16;28.00;;;15.55;;
36653;SDS011;22650;49.350;20.898;2024-03-07T16:11:54;28.77;;;16.35;;
36653;SDS011;22650;49.350;20.898;2024-03-07T16:14:29;29.13;;;15.15;;
36653;SDS011;22650;49.350;20.898;2024-03-07T16:17:04;29.77;;;15.65;;
36653;SDS011;22650;49.350;20.898;2024-03-07T16:19:39;31.73;;;16.65;;
36653;SDS011;22650;49.350;20.898;2024-03-07T16:22:13;28.15;;;15.35;;
36653;SDS011;22650;49.350;20.898;2024-03-07T16:24:47;27.45;;;14.75;;
36653;SDS011;22650;49.350;20.898;2024-03-07T16:27:24;26.83;;;15.63;;
36653;SDS011;22650;49.350;20.898;2024-03-07T16:29:57;25.95;;;14.80;;
36653;SDS011;22650;49.350;20.898;2024-03-07T16:32:33;28.30;;;14.30;;
36653;SDS011;22650;49.350;20.898;2024-03-07T16:35:08;26.48;;;14.25;;
36653;SDS011;22650;49.350;20.898;2024-03-07T16:37:43;30.35;;;14.60;;
36653;SDS011;22650;49.350;20.898;2024-03-07T16:40:19;27.65;;;15.60;;
36653;SDS011;22650;49.350;20.898;2024-03-07T16:42:55;26.40;;;15.05;;
36653;SDS011;22650;49.350;20.898;2024-03-07T16:45:31;31.60;;;16.45;;
36653;SDS011;22650;49.350;20.898;2024-03-07T16:48:07;28.75;;;14.23;;
36653;SDS011;22650;49.350;20.898;2024-03-07T16:50:45;29.52;;;14.45;;
36653;SDS011;22650;49.350;20.898;2024-03-07T16:53:18;26.90;;;13.98;;
36653;SDS011;22650;49.350;20.898;2024-03-07T16:55:52;28.50;;;14.50;;
36653;SDS011;22650;49.350;20.898;2024-03-07T16:58:26;27.27;;;13.27;;
36653;SDS011;22650;49.350;20.898;2024-03-07T17:01:00;27.25;;;16.05;;
36653;SDS011;22650;49.350;20.898;2024-03-07T17:03:37;29.90;;;14.63;;
36653;SDS011;22650;49.350;20.898;2024-03-07T17:06:11;27.30;;;13.88;;
36653;SDS011;22650;49.350;20.898;2024-03-07T17:08:44;28.55;;;15.43;;
36653;SDS011;22650;49.350;20.898;2024-03-07T17:11:20;28.42;;;15.80;;
36653;SDS011;22650;49.350;20.898;2024-03-07T17:13:53;25.75;;;13.70;;
36653;SDS011;22650;49.350;20.898;2024-03-07T17:16:27;27.50;;;13.70;;
36653;SDS011;22650;49.350;20.898;2024-03-07T17:19:02;28.95;;;15.02;;
36653;SDS011;22650;49.350;20.898;2024-03-07T17:21:41;29.35;;;14.70;;
36653;SDS011;22650;49.350;20.898;2024-03-07T17:24:17;23.45;;;13.52;;
36653;SDS011;22650;49.350;20.898;2024-03-07T17:26:52;26.48;;;14.00;;
36653;SDS011;22650;49.350;20.898;2024-03-07T17:29:27;27.00;;;15.88;;
36653;SDS011;22650;49.350;20.898;2024-03-07T17:32:01;31.25;;;15.77;;
36653;SDS011;22650;49.350;20.898;2024-03-07T17:34:40;30.00;;;15.57;;
36653;SDS011;22650;49.350;20.898;2024-03-07T17:37:14;25.67;;;14.40;;
36653;SDS011;22650;49.350;20.898;2024-03-07T17:39:48;31.70;;;15.63;;
36653;SDS011;22650;49.350;20.898;2024-03-07T17:42:25;25.40;;;13.98;;
36653;SDS011;22650;49.350;20.898;2024-03-07T17:44:59;28.42;;;15.05;;